sensor_id;sensor_type;location;lat;lon;timestamp;pressure;altitude;pressure_sealevel;temperature;humidity
13367;BME280;6752;52.612;13.630;2022-10-31T00:00:54;101174.34;;;10.60;100.00
13367;BME280;6752;52.612;13.630;2022-10-31T00:05:57;101179.91;;;10.56;100.00
13367;BME280;6752;52.612;13.630;2022-10-31T00:11:02;101187.98;;;10.60;100.00
13367;BME280;6752;52.612;13.630;2022-10-31T00:16:05;101181.80;;;10.52;100.00
13367;BME280;6752;52.612;13.630;2022-10-31T00:21:07;101189.89;;;10.19;100.00
13367;BME280;6752;52.612;13.630;2022-10-31T00:26:09;101182.60;;;10.36;100.00
13367;BME280;6752;52.612;13.630;2022-10-31T00:31:12;101190.05;;;10.35;100.00
13367;BME280;6752;52.612;13.630;2022-10-31T00:36:18;101186.69;;;10.26;100.00
13367;BME280;6752;52.612;13.630;2022-10-31T00:41:19;101189.52;;;10.25;100.00
13367;BME280;6752;52.612;13.630;2022-10-31T00:46:24;101198.48;;;10.19;100.00
13367;BME280;6752;52.612;13.630;2022-10-31T00:51:27;101193.70;;;10.21;100.00
13367;BME280;6752;52.612;13.630;2022-10-31T00:56:32;101200.38;;;10.19;100.00
13367;BME280;6752;52.612;13.630;2022-10-31T01:01:35;101198.73;;;10.21;100.00
13367;BME280;6752;52.612;13.630;2022-10-31T01:06:37;101200.34;;;10.15;100.00
13367;BME280;6752;52.612;13.630;2022-10-31T01:11:39;101204.52;;;10.15;100.00
13367;BME280;6752;52.612;13.630;2022-10-31T01:16:41;101212.98;;;9.99;100.00
13367;BME280;6752;52.612;13.630;2022-10-31T01:21:44;101213.19;;;9.74;100.00
13367;BME280;6752;52.612;13.630;2022-10-31T01:26:46;101226.63;;;9.82;100.00
13367;BME280;6752;52.612;13.630;2022-10-31T01:31:48;101220.13;;;9.80;100.00
13367;BME280;6752;52.612;13.630;2022-10-31T01:36:50;101226.92;;;9.80;100.00
13367;BME280;6752;52.612;13.630;2022-10-31T01:41:52;101231.31;;;9.77;100.00
13367;BME280;6752;52.612;13.630;2022-10-31T01:47:17;101225.16;;;9.83;100.00
13367;BME280;6752;52.612;13.630;2022-10-31T01:52:35;101236.03;;;9.76;100.00
13367;BME280;6752;52.612;13.630;2022-10-31T01:57:35;101228.58;;;9.74;100.00
13367;BME280;6752;52.612;13.630;2022-10-31T02:02:37;101227.11;;;9.72;100.00
13367;BME280;6752;52.612;13.630;2022-10-31T02:08:04;101218.88;;;9.65;100.00
13367;BME280;6752;52.612;13.630;2022-10-31T02:12:42;101231.44;;;9.63;100.00
13367;BME280;6752;52.612;13.630;2022-10-31T02:17:45;101238.06;;;9.47;100.00
13367;BME280;6752;52.612;13.630;2022-10-31T02:33:37;101239.95;;;9.46;100.00
13367;BME280;6752;52.612;13.630;2022-10-31T02:39:08;101239.23;;;9.34;100.00
13367;BME280;6752;52.612;13.630;2022-10-31T02:44:14;101225.05;;;9.46;100.00
13367;BME280;6752;52.612;13.630;2022-10-31T02:49:28;101232.84;;;9.35;100.00
13367;BME280;6752;52.612;13.630;2022-10-31T02:54:25;101234.59;;;9.28;100.00
13367;BME280;6752;52.612;13.630;2022-10-31T02:59:26;101235.62;;;9.27;100.00
13367;BME280;6752;52.612;13.630;2022-10-31T03:04:35;101238.23;;;9.25;100.00
13367;BME280;6752;52.612;13.630;2022-10-31T03:20:02;101242.43;;;8.99;100.00
13367;BME280;6752;52.612;13.630;2022-10-31T03:25:05;101254.12;;;9.11;100.00
13367;BME280;6752;52.612;13.630;2022-10-31T03:30:07;101255.95;;;9.03;100.00
13367;BME280;6752;52.612;13.630;2022-10-31T03:35:13;101256.09;;;8.99;100.00
13367;BME280;6752;52.612;13.630;2022-10-31T03:40:15;101262.83;;;8.99;100.00
13367;BME280;6752;52.612;13.630;2022-10-31T03:45:22;101268.44;;;9.08;100.00
13367;BME280;6752;52.612;13.630;2022-10-31T03:50:23;101269.88;;;9.22;100.00
13367;BME280;6752;52.612;13.630;2022-10-31T03:55:29;101283.30;;;9.51;100.00
13367;BME280;6752;52.612;13.630;2022-10-31T04:00:31;101292.63;;;9.14;100.00
13367;BME280;6752;52.612;13.630;2022-10-31T04:05:35;101305.16;;;9.36;100.00
13367;BME280;6752;52.612;13.630;2022-10-31T04:10:38;101294.58;;;10.00;100.00
13367;BME280;6752;52.612;13.630;2022-10-31T04:15:40;101304.17;;;10.34;100.00
13367;BME280;6752;52.612;13.630;2022-10-31T04:20:46;101317.13;;;10.49;100.00
13367;BME280;6752;52.612;13.630;2022-10-31T04:25:51;101314.40;;;9.53;100.00
13367;BME280;6752;52.612;13.630;2022-10-31T04:30:54;101306.92;;;9.79;100.00
13367;BME280;6752;52.612;13.630;2022-10-31T04:35:56;101317.69;;;10.31;100.00
13367;BME280;6752;52.612;13.630;2022-10-31T04:40:59;101307.46;;;9.81;100.00
13367;BME280;6752;52.612;13.630;2022-10-31T04:46:04;101310.81;;;9.97;100.00
13367;BME280;6752;52.612;13.630;2022-10-31T04:51:06;101316.62;;;10.12;100.00
13367;BME280;6752;52.612;13.630;2022-10-31T04:56:11;101315.11;;;9.82;100.00
13367;BME280;6752;52.612;13.630;2022-10-31T05:01:14;101312.09;;;10.05;100.00
13367;BME280;6752;52.612;13.630;2022-10-31T05:06:19;101327.78;;;9.99;100.00
13367;BME280;6752;52.612;13.630;2022-10-31T05:11:21;101327.41;;;10.09;100.00
13367;BME280;6752;52.612;13.630;2022-10-31T05:16:23;101327.88;;;10.40;100.00
13367;BME280;6752;52.612;13.630;2022-10-31T05:21:29;101332.97;;;10.50;100.00
13367;BME280;6752;52.612;13.630;2022-10-31T05:26:31;101332.09;;;10.76;100.00
13367;BME280;6752;52.612;13.630;2022-10-31T05:31:33;101338.38;;;10.73;100.00
13367;BME280;6752;52.612;13.630;2022-10-31T05:36:39;101344.27;;;10.84;100.00
13367;BME280;6752;52.612;13.630;2022-10-31T05:41:44;101342.17;;;10.82;100.00
13367;BME280;6752;52.612;13.630;2022-10-31T05:46:46;101335.25;;;10.86;100.00
13367;BME280;6752;52.612;13.630;2022-10-31T05:51:49;101345.89;;;11.02;100.00
13367;BME280;6752;52.612;13.630;2022-10-31T05:56:51;101348.09;;;11.09;100.00
13367;BME280;6752;52.612;13.630;2022-10-31T06:01:53;101347.03;;;10.94;100.00
13367;BME280;6752;52.612;13.630;2022-10-31T06:06:56;101348.40;;;10.90;100.00
13367;BME280;6752;52.612;13.630;2022-10-31T06:11:58;101355.43;;;10.95;100.00
13367;BME280;6752;52.612;13.630;2022-10-31T06:17:01;101356.83;;;11.15;100.00
13367;BME280;6752;52.612;13.630;2022-10-31T06:22:03;101361.55;;;11.17;100.00
13367;BME280;6752;52.612;13.630;2022-10-31T06:27:05;101365.95;;;11.28;100.00
13367;BME280;6752;52.612;13.630;2022-10-31T06:32:11;101380.27;;;11.37;100.00
13367;BME280;6752;52.612;13.630;2022-10-31T06:37:13;101376.36;;;11.55;100.00
13367;BME280;6752;52.612;13.630;2022-10-31T06:42:16;101383.82;;;11.70;100.00
13367;BME280;6752;52.612;13.630;2022-10-31T06:47:18;101389.20;;;11.88;100.00
13367;BME280;6752;52.612;13.630;2022-10-31T06:52:20;101375.84;;;11.92;100.00
13367;BME280;6752;52.612;13.630;2022-10-31T06:57:22;101386.33;;;11.98;100.00
13367;BME280;6752;52.612;13.630;2022-10-31T07:02:25;101391.25;;;12.15;100.00
13367;BME280;6752;52.612;13.630;2022-10-31T07:07:26;101397.61;;;12.35;100.00
13367;BME280;6752;52.612;13.630;2022-10-31T07:12:29;101399.46;;;12.44;100.00
13367;BME280;6752;52.612;13.630;2022-10-31T07:17:31;101397.53;;;12.77;100.00
13367;BME280;6752;52.612;13.630;2022-10-31T07:22:34;101401.45;;;12.72;100.00
13367;BME280;6752;52.612;13.630;2022-10-31T07:27:39;101409.33;;;13.16;100.00
13367;BME280;6752;52.612;13.630;2022-10-31T07:32:42;101399.98;;;13.49;100.00
13367;BME280;6752;52.612;13.630;2022-10-31T07:37:43;101401.32;;;13.77;100.00
13367;BME280;6752;52.612;13.630;2022-10-31T07:42:47;101404.11;;;14.05;100.00
13367;BME280;6752;52.612;13.630;2022-10-31T07:47:49;101404.48;;;14.51;100.00
13367;BME280;6752;52.612;13.630;2022-10-31T07:53:06;101404.89;;;14.70;100.00
13367;BME280;6752;52.612;13.630;2022-10-31T07:58:15;101409.70;;;15.19;100.00
13367;BME280;6752;52.612;13.630;2022-10-31T08:03:14;101416.77;;;15.48;100.00
13367;BME280;6752;52.612;13.630;2022-10-31T08:08:15;101423.98;;;15.25;100.00
13367;BME280;6752;52.612;13.630;2022-10-31T08:13:21;101432.50;;;15.14;100.00
13367;BME280;6752;52.612;13.630;2022-10-31T08:18:23;101433.47;;;15.11;100.00
13367;BME280;6752;52.612;13.630;2022-10-31T08:23:29;101433.22;;;15.15;100.00
13367;BME280;6752;52.612;13.630;2022-10-31T08:28:31;101430.10;;;15.03;100.00
13367;BME280;6752;52.612;13.630;2022-10-31T08:33:37;101440.81;;;15.23;100.00
13367;BME280;6752;52.612;13.630;2022-10-31T08:38:39;101438.38;;;15.24;100.00
13367;BME280;6752;52.612;13.630;2022-10-31T08:43:44;101421.38;;;15.66;100.00
13367;BME280;6752;52.612;13.630;2022-10-31T08:48:48;101438.83;;;15.65;100.00
13367;BME280;6752;52.612;13.630;2022-10-31T08:53:53;101440.27;;;15.80;100.00
13367;BME280;6752;52.612;13.630;2022-10-31T08:58:58;101440.10;;;16.07;100.00
13367;BME280;6752;52.612;13.630;2022-10-31T09:04:00;101438.75;;;16.19;100.00
13367;BME280;6752;52.612;13.630;2022-10-31T09:09:05;101427.79;;;16.77;100.00
13367;BME280;6752;52.612;13.630;2022-10-31T09:14:08;101428.46;;;16.81;100.00
13367;BME280;6752;52.612;13.630;2022-10-31T09:19:16;101439.88;;;17.16;100.00
13367;BME280;6752;52.612;13.630;2022-10-31T09:24:18;101437.17;;;17.63;100.00
13367;BME280;6752;52.612;13.630;2022-10-31T09:29:23;101444.87;;;17.76;100.00
13367;BME280;6752;52.612;13.630;2022-10-31T09:34:29;101451.08;;;19.37;100.00
13367;BME280;6752;52.612;13.630;2022-10-31T09:39:31;101452.16;;;19.09;100.00
13367;BME280;6752;52.612;13.630;2022-10-31T09:45:12;101462.56;;;19.91;100.00
13367;BME280;6752;52.612;13.630;2022-10-31T09:50:22;101467.25;;;19.88;100.00
13367;BME280;6752;52.612;13.630;2022-10-31T09:55:29;101462.77;;;20.37;97.86
13367;BME280;6752;52.612;13.630;2022-10-31T10:00:26;101454.89;;;20.87;97.34
13367;BME280;6752;52.612;13.630;2022-10-31T10:05:39;101464.57;;;20.37;100.00
13367;BME280;6752;52.612;13.630;2022-10-31T10:10:56;101462.07;;;20.36;96.24
13367;BME280;6752;52.612;13.630;2022-10-31T10:16:07;101467.48;;;20.18;97.59
13367;BME280;6752;52.612;13.630;2022-10-31T10:21:16;101460.25;;;21.99;92.35
13367;BME280;6752;52.612;13.630;2022-10-31T10:27:04;101440.95;;;22.36;87.11
13367;BME280;6752;52.612;13.630;2022-10-31T10:31:29;101429.95;;;22.48;82.65
13367;BME280;6752;52.612;13.630;2022-10-31T10:36:48;101440.14;;;23.55;81.21
13367;BME280;6752;52.612;13.630;2022-10-31T10:41:49;101442.63;;;22.85;80.12
13367;BME280;6752;52.612;13.630;2022-10-31T10:47:08;101438.84;;;23.39;81.48
13367;BME280;6752;52.612;13.630;2022-10-31T10:52:50;101422.73;;;24.51;76.52
13367;BME280;6752;52.612;13.630;2022-10-31T10:57:55;101424.02;;;24.94;74.93
13367;BME280;6752;52.612;13.630;2022-10-31T11:02:55;101417.94;;;25.01;74.53
13367;BME280;6752;52.612;13.630;2022-10-31T11:08:01;101420.64;;;24.64;76.84
13367;BME280;6752;52.612;13.630;2022-10-31T11:18:19;101426.77;;;24.39;75.03
13367;BME280;6752;52.612;13.630;2022-10-31T11:23:29;101433.70;;;23.42;79.06
13367;BME280;6752;52.612;13.630;2022-10-31T11:28:32;101428.12;;;22.93;81.74
13367;BME280;6752;52.612;13.630;2022-10-31T11:33:53;101415.83;;;22.69;80.37
13367;BME280;6752;52.612;13.630;2022-10-31T11:38:43;101406.17;;;22.57;84.13
13367;BME280;6752;52.612;13.630;2022-10-31T11:43:51;101408.62;;;22.18;84.82
13367;BME280;6752;52.612;13.630;2022-10-31T11:48:53;101403.39;;;22.07;86.75
13367;BME280;6752;52.612;13.630;2022-10-31T11:53:57;101409.60;;;21.37;92.53
13367;BME280;6752;52.612;13.630;2022-10-31T11:59:27;101410.57;;;20.92;92.92
13367;BME280;6752;52.612;13.630;2022-10-31T12:04:41;101413.80;;;20.66;97.21
13367;BME280;6752;52.612;13.630;2022-10-31T12:09:43;101408.28;;;20.43;98.46
13367;BME280;6752;52.612;13.630;2022-10-31T12:20:36;101401.65;;;20.46;99.24
13367;BME280;6752;52.612;13.630;2022-10-31T12:25:38;101400.90;;;20.61;98.83
13367;BME280;6752;52.612;13.630;2022-10-31T12:36:15;101393.20;;;20.47;98.48
13367;BME280;6752;52.612;13.630;2022-10-31T12:52:37;101380.77;;;20.89;95.65
13367;BME280;6752;52.612;13.630;2022-10-31T12:57:42;101378.74;;;20.61;97.14
13367;BME280;6752;52.612;13.630;2022-10-31T13:03:00;101372.44;;;20.47;99.64
13367;BME280;6752;52.612;13.630;2022-10-31T13:08:09;101371.02;;;20.78;96.66
13367;BME280;6752;52.612;13.630;2022-10-31T13:13:13;101376.05;;;20.50;97.25
13367;BME280;6752;52.612;13.630;2022-10-31T13:18:26;101368.91;;;20.36;99.78
13367;BME280;6752;52.612;13.630;2022-10-31T13:23:27;101368.92;;;20.15;100.00
13367;BME280;6752;52.612;13.630;2022-10-31T13:28:47;101358.73;;;20.46;98.72
13367;BME280;6752;52.612;13.630;2022-10-31T13:33:56;101359.58;;;20.31;99.90
13367;BME280;6752;52.612;13.630;2022-10-31T13:39:10;101354.31;;;20.29;100.00
13367;BME280;6752;52.612;13.630;2022-10-31T13:44:18;101348.73;;;20.17;100.00
13367;BME280;6752;52.612;13.630;2022-10-31T13:54:32;101339.02;;;20.12;100.00
13367;BME280;6752;52.612;13.630;2022-10-31T13:59:35;101337.88;;;20.10;100.00
13367;BME280;6752;52.612;13.630;2022-10-31T14:04:37;101337.30;;;20.05;100.00
13367;BME280;6752;52.612;13.630;2022-10-31T14:09:52;101341.41;;;19.95;100.00
13367;BME280;6752;52.612;13.630;2022-10-31T14:14:55;101330.82;;;19.88;100.00
13367;BME280;6752;52.612;13.630;2022-10-31T14:30:29;101327.09;;;19.64;100.00
13367;BME280;6752;52.612;13.630;2022-10-31T14:35:42;101325.85;;;19.52;100.00
13367;BME280;6752;52.612;13.630;2022-10-31T14:40:48;101319.77;;;19.37;100.00
13367;BME280;6752;52.612;13.630;2022-10-31T14:45:54;101322.73;;;19.25;100.00
13367;BME280;6752;52.612;13.630;2022-10-31T14:50:53;101323.95;;;19.10;100.00
13367;BME280;6752;52.612;13.630;2022-10-31T14:55:58;101314.42;;;18.93;100.00
13367;BME280;6752;52.612;13.630;2022-10-31T15:01:00;101310.40;;;18.79;100.00
13367;BME280;6752;52.612;13.630;2022-10-31T15:06:09;101308.73;;;18.67;100.00
13367;BME280;6752;52.612;13.630;2022-10-31T15:16:20;101307.16;;;18.27;100.00
13367;BME280;6752;52.612;13.630;2022-10-31T15:21:22;101304.48;;;17.93;100.00
13367;BME280;6752;52.612;13.630;2022-10-31T15:26:29;101306.69;;;17.83;100.00
13367;BME280;6752;52.612;13.630;2022-10-31T15:31:29;101301.16;;;17.66;100.00
13367;BME280;6752;52.612;13.630;2022-10-31T15:36:34;101301.32;;;17.32;100.00
13367;BME280;6752;52.612;13.630;2022-10-31T15:41:42;101294.30;;;17.16;100.00
13367;BME280;6752;52.612;13.630;2022-10-31T15:46:42;101297.43;;;17.05;100.00
13367;BME280;6752;52.612;13.630;2022-10-31T15:51:45;101300.44;;;16.90;100.00
13367;BME280;6752;52.612;13.630;2022-10-31T15:56:47;101295.09;;;16.83;100.00
13367;BME280;6752;52.612;13.630;2022-10-31T16:01:58;101297.20;;;16.44;100.00
13367;BME280;6752;52.612;13.630;2022-10-31T16:07:13;101299.17;;;16.66;100.00
13367;BME280;6752;52.612;13.630;2022-10-31T16:12:15;101296.62;;;16.50;100.00
13367;BME280;6752;52.612;13.630;2022-10-31T16:17:19;101302.20;;;16.27;100.00
13367;BME280;6752;52.612;13.630;2022-10-31T16:22:21;101306.02;;;16.18;100.00
13367;BME280;6752;52.612;13.630;2022-10-31T16:27:32;101310.40;;;16.10;100.00
13367;BME280;6752;52.612;13.630;2022-10-31T16:32:34;101313.25;;;16.04;100.00
13367;BME280;6752;52.612;13.630;2022-10-31T16:37:39;101314.44;;;15.88;100.00
13367;BME280;6752;52.612;13.630;2022-10-31T16:42:41;101313.59;;;15.75;100.00
13367;BME280;6752;52.612;13.630;2022-10-31T16:47:43;101309.13;;;15.66;100.00
13367;BME280;6752;52.612;13.630;2022-10-31T16:52:45;101316.78;;;15.55;100.00
13367;BME280;6752;52.612;13.630;2022-10-31T16:57:48;101303.81;;;15.53;100.00
13367;BME280;6752;52.612;13.630;2022-10-31T17:02:50;101301.44;;;15.45;100.00
13367;BME280;6752;52.612;13.630;2022-10-31T17:07:52;101309.30;;;15.29;100.00
13367;BME280;6752;52.612;13.630;2022-10-31T17:12:57;101303.50;;;15.23;100.00
13367;BME280;6752;52.612;13.630;2022-10-31T17:18:00;101303.14;;;15.19;100.00
13367;BME280;6752;52.612;13.630;2022-10-31T17:23:05;101297.08;;;15.08;100.00
13367;BME280;6752;52.612;13.630;2022-10-31T17:28:10;101293.30;;;15.00;100.00
13367;BME280;6752;52.612;13.630;2022-10-31T17:33:28;101291.23;;;14.89;100.00
13367;BME280;6752;52.612;13.630;2022-10-31T17:38:30;101295.27;;;14.81;100.00
13367;BME280;6752;52.612;13.630;2022-10-31T17:43:36;101296.57;;;14.72;100.00
13367;BME280;6752;52.612;13.630;2022-10-31T17:48:38;101287.16;;;14.65;100.00
13367;BME280;6752;52.612;13.630;2022-10-31T17:53:44;101286.00;;;14.67;100.00
13367;BME280;6752;52.612;13.630;2022-10-31T17:58:46;101279.86;;;14.59;100.00
13367;BME280;6752;52.612;13.630;2022-10-31T18:03:49;101281.47;;;14.57;100.00
13367;BME280;6752;52.612;13.630;2022-10-31T18:08:51;101278.58;;;14.47;100.00
13367;BME280;6752;52.612;13.630;2022-10-31T18:13:57;101281.13;;;14.41;100.00
13367;BME280;6752;52.612;13.630;2022-10-31T18:19:01;101273.02;;;14.26;100.00
13367;BME280;6752;52.612;13.630;2022-10-31T18:24:04;101274.02;;;14.22;100.00
13367;BME280;6752;52.612;13.630;2022-10-31T18:29:08;101269.22;;;14.08;100.00
13367;BME280;6752;52.612;13.630;2022-10-31T18:34:14;101275.80;;;14.13;100.00
13367;BME280;6752;52.612;13.630;2022-10-31T18:39:12;101270.22;;;14.05;100.00
13367;BME280;6752;52.612;13.630;2022-10-31T18:44:15;101274.53;;;13.97;100.00
13367;BME280;6752;52.612;13.630;2022-10-31T18:49:19;101280.58;;;14.03;100.00
13367;BME280;6752;52.612;13.630;2022-10-31T18:54:21;101250.53;;;13.93;100.00
13367;BME280;6752;52.612;13.630;2022-10-31T18:59:24;101251.67;;;13.67;100.00
13367;BME280;6752;52.612;13.630;2022-10-31T19:04:26;101248.66;;;13.72;100.00
13367;BME280;6752;52.612;13.630;2022-10-31T19:09:28;101245.49;;;13.75;100.00
13367;BME280;6752;52.612;13.630;2022-10-31T19:14:31;101243.52;;;13.70;100.00
13367;BME280;6752;52.612;13.630;2022-10-31T19:19:33;101237.11;;;13.79;100.00
13367;BME280;6752;52.612;13.630;2022-10-31T19:24:36;101234.48;;;13.78;100.00
13367;BME280;6752;52.612;13.630;2022-10-31T19:29:38;101239.11;;;13.68;100.00
13367;BME280;6752;52.612;13.630;2022-10-31T19:34:40;101235.06;;;13.74;100.00
13367;BME280;6752;52.612;13.630;2022-10-31T19:39:43;101228.25;;;13.80;100.00
13367;BME280;6752;52.612;13.630;2022-10-31T19:44:45;101227.03;;;13.76;100.00
13367;BME280;6752;52.612;13.630;2022-10-31T19:49:47;101232.81;;;13.77;100.00
13367;BME280;6752;52.612;13.630;2022-10-31T19:54:50;101228.75;;;13.74;100.00
13367;BME280;6752;52.612;13.630;2022-10-31T19:59:52;101219.39;;;13.72;100.00
13367;BME280;6752;52.612;13.630;2022-10-31T20:04:55;101220.77;;;13.69;100.00
13367;BME280;6752;52.612;13.630;2022-10-31T20:09:57;101220.28;;;13.66;100.00
13367;BME280;6752;52.612;13.630;2022-10-31T20:14:59;101211.76;;;13.65;100.00
13367;BME280;6752;52.612;13.630;2022-10-31T20:20:02;101206.90;;;13.58;100.00
13367;BME280;6752;52.612;13.630;2022-10-31T20:25:04;101197.20;;;13.59;100.00
13367;BME280;6752;52.612;13.630;2022-10-31T20:30:06;101191.41;;;13.58;100.00
13367;BME280;6752;52.612;13.630;2022-10-31T20:35:09;101188.36;;;13.66;100.00
13367;BME280;6752;52.612;13.630;2022-10-31T20:40:11;101190.11;;;13.70;100.00
13367;BME280;6752;52.612;13.630;2022-10-31T20:45:13;101182.70;;;13.64;100.00
13367;BME280;6752;52.612;13.630;2022-10-31T20:50:16;101192.18;;;13.74;100.00
13367;BME280;6752;52.612;13.630;2022-10-31T20:55:18;101185.83;;;13.77;100.00
13367;BME280;6752;52.612;13.630;2022-10-31T21:00:21;101180.53;;;13.79;100.00
13367;BME280;6752;52.612;13.630;2022-10-31T21:05:23;101179.83;;;13.83;100.00
13367;BME280;6752;52.612;13.630;2022-10-31T21:10:25;101182.58;;;13.83;100.00
13367;BME280;6752;52.612;13.630;2022-10-31T21:15:28;101168.13;;;13.91;100.00
13367;BME280;6752;52.612;13.630;2022-10-31T21:20:30;101161.48;;;13.84;100.00
13367;BME280;6752;52.612;13.630;2022-10-31T21:25:33;101161.56;;;13.86;100.00
13367;BME280;6752;52.612;13.630;2022-10-31T21:30:41;101159.48;;;13.91;100.00
13367;BME280;6752;52.612;13.630;2022-10-31T21:35:49;101151.52;;;13.95;100.00
13367;BME280;6752;52.612;13.630;2022-10-31T21:40:57;101157.16;;;13.91;100.00
13367;BME280;6752;52.612;13.630;2022-10-31T21:45:53;101152.52;;;14.01;100.00
13367;BME280;6752;52.612;13.630;2022-10-31T21:50:55;101134.97;;;14.11;100.00
13367;BME280;6752;52.612;13.630;2022-10-31T21:56:01;101126.21;;;14.11;100.00
13367;BME280;6752;52.612;13.630;2022-10-31T22:01:03;101129.05;;;14.05;100.00
13367;BME280;6752;52.612;13.630;2022-10-31T22:06:06;101124.29;;;14.06;100.00
13367;BME280;6752;52.612;13.630;2022-10-31T22:11:09;101109.87;;;14.05;100.00
13367;BME280;6752;52.612;13.630;2022-10-31T22:16:12;101119.52;;;14.02;100.00
13367;BME280;6752;52.612;13.630;2022-10-31T22:21:17;101113.56;;;14.05;100.00
13367;BME280;6752;52.612;13.630;2022-10-31T22:26:15;101116.17;;;13.90;100.00
13367;BME280;6752;52.612;13.630;2022-10-31T22:31:18;101117.86;;;14.06;100.00
13367;BME280;6752;52.612;13.630;2022-10-31T22:36:38;101120.66;;;14.24;100.00
13367;BME280;6752;52.612;13.630;2022-10-31T22:41:40;101112.33;;;14.16;100.00
13367;BME280;6752;52.612;13.630;2022-10-31T22:46:43;101119.47;;;14.11;100.00
13367;BME280;6752;52.612;13.630;2022-10-31T22:51:45;101107.78;;;14.04;100.00
13367;BME280;6752;52.612;13.630;2022-10-31T22:56:50;101112.19;;;14.20;100.00
13367;BME280;6752;52.612;13.630;2022-10-31T23:01:53;101104.57;;;14.07;100.00
13367;BME280;6752;52.612;13.630;2022-10-31T23:06:56;101092.16;;;13.98;100.00
13367;BME280;6752;52.612;13.630;2022-10-31T23:11:58;101090.51;;;14.09;100.00
13367;BME280;6752;52.612;13.630;2022-10-31T23:17:00;101084.36;;;14.04;100.00
13367;BME280;6752;52.612;13.630;2022-10-31T23:22:02;101076.08;;;14.02;100.00
13367;BME280;6752;52.612;13.630;2022-10-31T23:27:05;101065.11;;;13.96;100.00
13367;BME280;6752;52.612;13.630;2022-10-31T23:32:08;101064.94;;;14.06;100.00
13367;BME280;6752;52.612;13.630;2022-10-31T23:37:09;101071.86;;;14.14;100.00
13367;BME280;6752;52.612;13.630;2022-10-31T23:42:11;101073.53;;;14.15;100.00
13367;BME280;6752;52.612;13.630;2022-10-31T23:47:14;101054.82;;;14.18;100.00
13367;BME280;6752;52.612;13.630;2022-10-31T23:52:16;101040.73;;;14.24;100.00
13367;BME280;6752;52.612;13.630;2022-10-31T23:57:18;101035.37;;;14.23;100.00
